Time;durP1;ratioP1;P1;durP2;ratioP2;P2;SDS_P1;SDS_P2;PMS_P1;PMS_P2;Temp;Humidity;BMP_temperature;BMP_pressure;BME280_temperature;BME280_humidity;BME280_pressure;Samples;Min_cycle;Max_cycle;Signal;HPM_P1;HPM_P2
2024/02/05 00:01:51;;;;;;;11.30;8.63;;;;;;;21.43;44.99;101912.03;5032565;27;125397;-79
2024/02/05 00:04:16;;;;;;;13.07;8.20;;;;;;;21.43;44.75;101909.38;5035975;27;96788;-79
2024/02/05 00:06:41;;;;;;;11.40;7.20;;;;;;;21.43;45.09;101920.00;5034045;27;104587;-79
2024/02/05 00:09:07;;;;;;;11.05;7.47;;;;;;;21.43;44.82;101913.81;5033259;28;97711;-79
2024/02/05 00:11:33;;;;;;;11.18;7.10;;;;;;;21.43;44.87;101909.38;5034565;27;96718;-79
2024/02/05 00:14:00;;;;;;;11.95;8.07;;;;;;;21.42;45.07;101904.94;5034561;27;96774;-79
2024/02/05 00:16:25;;;;;;;11.82;8.18;;;;;;;21.43;45.04;101913.81;5034631;27;97371;-79
2024/02/05 00:18:52;;;;;;;10.30;7.25;;;;;;;21.42;45.08;101918.22;5033926;28;118690;-80
2024/02/05 00:21:17;;;;;;;9.75;7.78;;;;;;;21.42;44.90;101920.88;5034808;28;97305;-80
2024/02/05 00:23:43;;;;;;;9.35;7.18;;;;;;;21.42;44.76;101926.19;5038222;27;96832;-79
2024/02/05 00:26:08;;;;;;;9.88;6.60;;;;;;;21.43;44.86;101930.59;5036750;27;100903;-80
2024/02/05 00:28:33;;;;;;;10.00;6.72;;;;;;;21.42;44.90;101923.53;5035338;27;105800;-79
2024/02/05 00:30:59;;;;;;;10.07;7.18;;;;;;;21.42;44.94;101920.88;5041401;27;97247;-80
2024/02/05 00:33:24;;;;;;;9.40;6.78;;;;;;;21.43;44.83;101929.75;5021382;27;96707;-79
2024/02/05 00:35:50;;;;;;;7.75;6.00;;;;;;;21.43;45.08;101919.13;5034499;27;112329;-79
2024/02/05 00:38:15;;;;;;;10.70;7.22;;;;;;;21.42;44.79;101920.88;5027725;27;99574;-79
2024/02/05 00:40:41;;;;;;;9.57;6.90;;;;;;;21.43;45.09;101920.00;5038942;27;124266;-79
2024/02/05 00:43:07;;;;;;;8.65;6.22;;;;;;;21.44;44.95;101931.47;5037877;27;97370;-80
2024/02/05 00:45:33;;;;;;;8.90;6.72;;;;;;;21.43;44.95;101933.25;5024778;27;97111;-80
2024/02/05 00:47:58;;;;;;;9.18;5.75;;;;;;;21.44;45.01;101920.84;5030981;27;117612;-79
2024/02/05 00:50:23;;;;;;;9.77;5.63;;;;;;;21.44;45.14;101928.81;5038082;27;97378;-80
2024/02/05 00:52:49;;;;;;;10.38;5.88;;;;;;;21.42;44.74;101928.84;5034232;27;112062;-80
2024/02/05 00:55:15;;;;;;;7.93;5.90;;;;;;;21.43;44.90;101922.66;5009118;28;97313;-79
2024/02/05 00:57:40;;;;;;;8.15;6.30;;;;;;;21.43;45.14;101924.44;5030317;27;98365;-79
2024/02/05 01:00:09;;;;;;;7.82;4.88;;;;;;;21.44;44.79;101920.84;5023419;27;97719;-79
2024/02/05 01:02:38;;;;;;;8.93;5.25;;;;;;;21.42;44.91;101906.75;5026467;28;97829;-79
2024/02/05 01:05:05;;;;;;;9.23;5.18;;;;;;;21.44;44.81;101915.56;5025106;27;96832;-80
2024/02/05 01:07:31;;;;;;;9.07;6.30;;;;;;;21.44;44.99;101915.56;5023880;27;96934;-80
2024/02/05 01:09:56;;;;;;;8.85;6.05;;;;;;;21.43;44.74;101919.13;5027632;28;101061;-79
2024/02/05 01:12:22;;;;;;;9.38;6.07;;;;;;;21.42;44.71;101918.22;5026493;27;97211;-79
2024/02/05 01:14:47;;;;;;;8.05;5.10;;;;;;;21.44;44.61;101920.84;5033979;27;96838;-80
2024/02/05 01:17:12;;;;;;;7.43;5.50;;;;;;;21.43;44.69;101925.31;5035571;27;96849;-79
2024/02/05 01:19:38;;;;;;;7.45;4.90;;;;;;;21.43;44.74;101914.69;5022563;28;96872;-79
2024/02/05 01:22:04;;;;;;;7.38;5.80;;;;;;;21.42;44.92;101907.59;5020305;27;97019;-79
2024/02/05 01:24:30;;;;;;;8.30;5.55;;;;;;;21.44;44.80;101916.44;5026294;27;96841;-79
2024/02/05 01:26:55;;;;;;;6.80;5.07;;;;;;;21.43;44.81;101922.66;5028111;27;97076;-79
2024/02/05 01:29:21;;;;;;;6.75;5.40;;;;;;;21.43;44.59;101914.69;5028473;27;96963;-80
2024/02/05 01:31:47;;;;;;;6.60;5.13;;;;;;;21.44;44.88;101913.78;5018079;27;110893;-80
2024/02/05 01:34:13;;;;;;;8.55;5.30;;;;;;;21.44;44.74;101918.22;5033244;28;96905;-79
2024/02/05 01:36:38;;;;;;;8.18;5.43;;;;;;;21.44;44.66;101910.25;5024039;27;104268;-80
2024/02/05 01:39:04;;;;;;;6.82;4.15;;;;;;;21.44;44.74;101911.16;5038279;27;98720;-79
2024/02/05 01:41:31;;;;;;;6.95;4.90;;;;;;;21.44;44.93;101912.91;5028958;27;96816;-80
2024/02/05 01:43:57;;;;;;;7.38;5.38;;;;;;;21.44;44.75;101911.16;5019136;27;96925;-79
2024/02/05 01:46:25;;;;;;;8.63;4.68;;;;;;;21.44;44.72;101904.94;5032336;27;97464;-79
2024/02/05 01:48:56;;;;;;;8.88;4.93;;;;;;;21.44;44.75;101910.25;5034001;27;98624;-79
2024/02/05 01:51:23;;;;;;;7.75;4.53;;;;;;;21.42;45.02;101899.66;5034770;27;97161;-79
2024/02/05 01:53:52;;;;;;;8.32;5.20;;;;;;;21.43;44.67;101898.75;5031537;27;96950;-79
2024/02/05 01:56:22;;;;;;;6.50;4.60;;;;;;;21.43;44.85;101904.06;5036430;27;97882;-79
2024/02/05 01:58:47;;;;;;;7.93;5.57;;;;;;;21.43;44.97;101904.06;5034384;28;96908;-80
2024/02/05 02:01:13;;;;;;;7.05;4.78;;;;;;;21.43;44.68;101898.75;5034456;28;96805;-80
2024/02/05 02:03:42;;;;;;;6.78;3.92;;;;;;;21.44;44.96;101894.31;5035649;28;97197;-79
2024/02/05 02:06:11;;;;;;;6.70;3.88;;;;;;;21.45;44.88;101901.41;5018075;28;97675;-79
2024/02/05 02:08:41;;;;;;;6.72;4.07;;;;;;;21.43;45.00;101905.84;5035665;27;96751;-80
2024/02/05 02:11:07;;;;;;;5.85;3.65;;;;;;;21.43;44.81;101896.09;5035819;28;97557;-79
2024/02/05 02:13:34;;;;;;;8.35;4.70;;;;;;;21.43;44.74;101906.72;5036204;27;97005;-79
2024/02/05 02:16:06;;;;;;;5.60;3.70;;;;;;;21.44;44.82;101894.31;5036288;27;97477;-79
2024/02/05 02:18:34;;;;;;;6.18;3.78;;;;;;;21.43;44.93;101887.28;5040824;27;97541;-79
2024/02/05 02:21:01;;;;;;;8.00;3.40;;;;;;;21.44;44.82;101902.28;5029740;27;96826;-79
2024/02/05 02:23:33;;;;;;;5.68;3.50;;;;;;;21.43;44.88;101896.09;5038271;27;97327;-79
2024/02/05 02:26:00;;;;;;;5.72;3.90;;;;;;;21.45;44.56;101888.13;5032108;27;96981;-79
2024/02/05 02:28:26;;;;;;;6.15;3.25;;;;;;;21.43;44.85;101887.28;5044709;27;97444;-79
2024/02/05 02:30:52;;;;;;;6.75;4.28;;;;;;;21.43;44.39;101885.50;5024290;27;96937;-79
2024/02/05 02:33:42;;;;;;;7.00;4.00;;;;;;;21.44;44.55;101899.63;5020472;27;97221;-80
2024/02/05 02:36:09;;;;;;;5.95;3.92;;;;;;;21.42;44.57;101902.31;5018505;28;96928;-79
2024/02/05 02:38:38;;;;;;;7.88;4.40;;;;;;;21.42;44.71;101902.31;5034481;27;98373;-80
2024/02/05 02:41:09;;;;;;;6.68;4.25;;;;;;;21.43;44.86;101898.75;5037417;27;97154;-79
2024/02/05 02:43:53;;;;;;;6.68;3.35;;;;;;;21.42;44.90;101897.00;5018985;27;96816;-80
2024/02/05 02:46:19;;;;;;;6.97;4.38;;;;;;;21.42;44.64;101902.31;5021102;28;96910;-80
2024/02/05 02:48:45;;;;;;;7.72;4.00;;;;;;;21.43;44.77;101900.53;5035643;27;97369;-80
2024/02/05 02:51:11;;;;;;;6.40;3.42;;;;;;;21.43;44.72;101900.53;5036629;27;96847;-79
2024/02/05 02:53:36;;;;;;;5.05;3.50;;;;;;;21.43;44.52;101898.75;5035365;27;97575;-79
2024/02/05 02:56:02;;;;;;;7.20;3.30;;;;;;;21.43;44.93;101895.25;5040349;27;112702;-80
2024/02/05 02:58:27;;;;;;;5.43;4.10;;;;;;;21.43;44.65;101893.44;5035411;27;97510;-79
2024/02/05 03:00:53;;;;;;;6.57;3.15;;;;;;;21.44;44.87;101886.34;5022420;28;112183;-79
2024/02/05 03:03:18;;;;;;;5.22;2.90;;;;;;;21.43;44.83;101887.28;5031567;27;111896;-79
2024/02/05 03:05:44;;;;;;;5.47;3.75;;;;;;;21.43;44.88;101896.09;5025653;28;98214;-80
2024/02/05 03:08:09;;;;;;;4.97;3.00;;;;;;;21.43;44.67;101885.50;5045340;27;97627;-80
2024/02/05 03:10:34;;;;;;;5.00;2.80;;;;;;;21.43;44.75;101876.66;5018846;27;96843;-80
2024/02/05 03:13:00;;;;;;;5.93;3.65;;;;;;;21.43;44.35;101888.16;5041961;27;108011;-80
2024/02/05 03:15:25;;;;;;;5.15;2.90;;;;;;;21.44;44.66;101884.59;5015758;28;106485;-80
2024/02/05 03:17:50;;;;;;;6.55;2.90;;;;;;;21.43;44.60;101882.84;5018710;27;97119;-80
2024/02/05 03:20:35;;;;;;;6.78;3.40;;;;;;;21.43;44.81;101881.97;5038621;27;97374;-80
2024/02/05 03:23:03;;;;;;;6.35;3.53;;;;;;;21.43;44.60;101896.09;5029353;28;96706;-79
2024/02/05 03:25:29;;;;;;;6.20;3.65;;;;;;;21.44;44.71;101886.34;5048512;27;97954;-79
2024/02/05 03:27:57;;;;;;;5.78;3.33;;;;;;;21.43;44.65;101896.09;5026746;27;97285;-79
2024/02/05 03:30:23;;;;;;;6.03;3.20;;;;;;;21.44;44.68;101897.88;5043940;27;96848;-80
2024/02/05 03:32:49;;;;;;;6.18;3.22;;;;;;;21.45;44.53;101901.41;5036836;27;97037;-80
2024/02/05 03:35:18;;;;;;;7.10;4.00;;;;;;;21.45;44.49;101906.69;5023205;27;97623;-80
2024/02/05 03:37:43;;;;;;;;;;;;;;;21.37;44.58;101900.63;5030266;27;97482;-79
2024/02/05 03:40:10;;;;;;;4.93;2.97;;;;;;;21.37;44.50;101904.19;5028360;27;96828;-79
2024/02/05 03:42:35;;;;;;;4.80;3.13;;;;;;;21.40;44.50;101903.25;5034699;28;97808;-80
2024/02/05 03:45:00;;;;;;;5.80;2.40;;;;;;;21.41;44.40;101900.56;5035547;27;119421;-79
2024/02/05 03:47:26;;;;;;;6.10;3.03;;;;;;;21.42;44.74;101901.44;5018917;27;97314;-80
2024/02/05 03:49:51;;;;;;;5.00;3.20;;;;;;;21.42;44.66;101907.59;5016006;27;97032;-80
2024/02/05 03:52:16;;;;;;;6.18;3.30;;;;;;;21.42;44.28;101910.25;5036178;27;97635;-80
2024/02/05 03:54:43;;;;;;;5.53;3.25;;;;;;;21.43;44.30;101904.06;5033639;27;104426;-80
2024/02/05 03:57:09;;;;;;;6.07;2.50;;;;;;;21.42;44.62;101904.94;5036149;27;97882;-80
2024/02/05 03:59:35;;;;;;;5.18;2.15;;;;;;;21.43;44.59;101908.50;5020520;27;97062;-80
2024/02/05 04:02:02;;;;;;;6.78;3.17;;;;;;;21.43;44.72;101914.69;5034487;27;97663;-80
2024/02/05 04:04:28;;;;;;;5.82;2.83;;;;;;;21.44;44.46;101907.59;5033437;27;97426;-80
2024/02/05 04:06:53;;;;;;;5.53;3.28;;;;;;;21.43;44.41;101904.06;5032877;27;126625;-80
2024/02/05 04:09:18;;;;;;;4.60;3.00;;;;;;;21.43;44.30;101909.38;5025816;27;96711;-80
2024/02/05 04:11:44;;;;;;;6.20;3.40;;;;;;;21.43;44.60;101901.41;5022730;27;97131;-80
2024/02/05 04:14:10;;;;;;;5.15;2.88;;;;;;;21.44;44.47;101910.25;5030636;27;97772;-80
2024/02/05 04:16:36;;;;;;;6.35;2.92;;;;;;;21.44;44.33;101907.59;5029385;27;98082;-80
2024/02/05 04:19:02;;;;;;;5.03;3.30;;;;;;;21.43;44.65;101906.72;5035669;28;96855;-80
2024/02/05 04:21:27;;;;;;;6.47;2.85;;;;;;;21.44;44.56;101903.19;5024872;27;97070;-80
2024/02/05 04:23:53;;;;;;;7.68;3.10;;;;;;;21.44;44.78;101911.16;5035313;27;97685;-80
2024/02/05 04:26:18;;;;;;;3.97;2.17;;;;;;;21.44;44.29;101903.19;5035093;27;97795;-80
2024/02/05 04:28:44;;;;;;;5.60;2.63;;;;;;;21.44;44.71;101903.19;5032237;27;113008;-80
2024/02/05 04:31:10;;;;;;;5.63;2.08;;;;;;;21.44;44.72;101903.19;5018293;27;97152;-80
2024/02/05 04:33:36;;;;;;;4.85;2.72;;;;;;;21.44;44.26;101915.56;5024645;27;99930;-80
2024/02/05 04:36:01;;;;;;;6.97;2.65;;;;;;;21.45;44.39;101914.66;5031203;27;97541;-80
2024/02/05 04:38:27;;;;;;;5.25;2.20;;;;;;;21.44;44.49;101905.84;5043489;27;96818;-80
2024/02/05 04:40:52;;;;;;;4.10;1.88;;;;;;;21.44;44.25;101910.25;5017958;28;97134;-80
2024/02/05 04:43:18;;;;;;;4.05;2.13;;;;;;;21.44;44.45;101915.56;5022332;28;96802;-80
2024/02/05 04:45:43;;;;;;;6.15;2.03;;;;;;;21.43;44.30;101909.38;5033784;27;96742;-80
2024/02/05 04:48:08;;;;;;;5.85;2.67;;;;;;;21.44;44.43;101907.59;5033928;28;97060;-80
2024/02/05 04:50:34;;;;;;;4.80;2.60;;;;;;;21.43;44.42;101909.38;5034527;27;96846;-80
2024/02/05 04:52:59;;;;;;;4.88;1.95;;;;;;;21.44;44.56;101908.50;5039491;27;100544;-79
2024/02/05 04:55:25;;;;;;;5.22;3.17;;;;;;;21.44;44.22;101905.84;5019659;27;96889;-79
2024/02/05 04:57:50;;;;;;;5.40;2.70;;;;;;;21.44;44.43;101902.28;5033976;28;109263;-80
2024/02/05 05:00:17;;;;;;;5.88;2.00;;;;;;;21.45;44.60;101906.69;5030627;27;96912;-79
2024/02/05 05:02:43;;;;;;;6.25;2.92;;;;;;;21.45;44.36;101901.41;5031902;27;96741;-80
2024/02/05 05:05:08;;;;;;;5.20;2.13;;;;;;;21.44;44.36;101911.16;5038907;27;97258;-80
2024/02/05 05:07:34;;;;;;;5.22;2.70;;;;;;;21.45;44.54;101898.75;5037061;27;97429;-80
2024/02/05 05:10:01;;;;;;;5.82;2.03;;;;;;;21.45;44.34;101896.09;5024877;27;116518;-80
2024/02/05 05:12:27;;;;;;;4.28;1.70;;;;;;;21.45;44.31;101890.78;5035556;28;98508;-80
2024/02/05 05:14:53;;;;;;;5.15;2.45;;;;;;;21.45;44.19;101896.09;5033473;27;99355;-80
2024/02/05 05:17:18;;;;;;;5.55;3.00;;;;;;;21.45;44.44;101890.78;5022702;28;96659;-80
2024/02/05 05:19:43;;;;;;;5.13;2.60;;;;;;;21.45;44.31;101891.69;5030047;27;96797;-80
2024/02/05 05:22:09;;;;;;;4.82;1.88;;;;;;;21.45;44.46;101896.09;5046501;27;98017;-80
2024/02/05 05:24:34;;;;;;;5.40;2.47;;;;;;;21.45;44.40;101901.41;5032311;28;97341;-80
2024/02/05 05:27:00;;;;;;;5.55;1.92;;;;;;;21.45;44.26;101891.69;5034380;27;117860;-80
2024/02/05 05:29:25;;;;;;;6.07;3.03;;;;;;;21.45;44.19;101901.41;5032902;28;115847;-80
2024/02/05 05:31:50;;;;;;;4.53;2.13;;;;;;;21.44;44.49;101884.59;5025165;27;97523;-80
2024/02/05 05:34:16;;;;;;;3.88;1.80;;;;;;;21.44;44.50;101897.88;5014380;27;98443;-80
2024/02/05 05:36:41;;;;;;;5.00;1.80;;;;;;;21.45;44.31;101880.16;5014749;28;117148;-80
2024/02/05 05:39:09;;;;;;;5.22;1.88;;;;;;;21.44;44.47;101879.28;5035851;27;116665;-79
2024/02/05 05:41:35;;;;;;;4.78;2.30;;;;;;;21.45;44.25;101888.13;5021129;27;97844;-79
2024/02/05 05:44:02;;;;;;;5.05;2.45;;;;;;;21.44;44.13;101876.63;5023202;27;97286;-80
2024/02/05 05:46:28;;;;;;;4.60;2.65;;;;;;;21.44;44.23;101879.28;5044566;27;96766;-80
2024/02/05 05:48:54;;;;;;;3.45;1.60;;;;;;;21.43;44.59;101877.53;5034822;27;97008;-79
2024/02/05 05:51:19;;;;;;;6.20;2.50;;;;;;;21.44;44.38;101870.44;5023856;27;99785;-80
2024/02/05 05:53:45;;;;;;;4.70;2.38;;;;;;;21.44;44.45;101859.81;5029906;27;117389;-80
2024/02/05 05:56:10;;;;;;;5.43;1.80;;;;;;;21.44;44.20;101871.34;5001851;28;96922;-80
2024/02/05 05:58:36;;;;;;;4.88;2.60;;;;;;;21.44;44.28;101866.03;5029647;27;97132;-80
2024/02/05 06:01:05;;;;;;;4.32;2.30;;;;;;;21.44;44.43;101871.34;5015931;27;99287;-80
2024/02/05 06:03:33;;;;;;;5.10;1.98;;;;;;;21.45;44.13;101872.19;5030238;27;100632;-80
2024/02/05 06:05:59;;;;;;;4.55;2.70;;;;;;;21.45;44.37;101870.44;5032380;28;97258;-80
2024/02/05 06:08:25;;;;;;;6.18;2.50;;;;;;;21.44;44.21;101873.09;5024118;27;96816;-80
2024/02/05 06:10:51;;;;;;;4.43;2.05;;;;;;;21.45;44.21;101865.13;5031548;27;98236;-80
2024/02/05 06:13:16;;;;;;;4.38;1.80;;;;;;;21.44;44.33;101870.44;5032641;27;98879;-79
2024/02/05 06:15:42;;;;;;;4.45;2.60;;;;;;;21.44;44.41;101863.38;5033469;28;98482;-80
2024/02/05 06:18:07;;;;;;;5.55;2.20;;;;;;;21.44;44.49;101851.84;5030859;27;96979;-80
2024/02/05 06:20:33;;;;;;;5.35;2.15;;;;;;;21.44;44.48;101839.47;5024021;27;96872;-80
2024/02/05 06:22:58;;;;;;;5.20;1.90;;;;;;;21.44;44.13;101850.09;5030422;28;100396;-80
2024/02/05 06:25:23;;;;;;;4.18;2.38;;;;;;;21.44;44.16;101851.84;5025040;27;97306;-80
2024/02/05 06:27:49;;;;;;;4.53;1.83;;;;;;;21.44;44.32;101843.88;5028655;27;116661;-80
2024/02/05 06:30:14;;;;;;;5.18;2.25;;;;;;;21.44;44.28;101855.41;5013066;28;100253;-80
2024/02/05 06:32:40;;;;;;;5.18;2.13;;;;;;;21.44;44.46;101863.38;5006495;28;100171;-80
2024/02/05 06:35:05;;;;;;;4.78;1.90;;;;;;;21.43;44.13;101864.25;5031452;28;113213;-80
2024/02/05 06:37:31;;;;;;;5.05;2.00;;;;;;;21.45;44.09;101869.53;5015685;28;97156;-79
2024/02/05 06:39:56;;;;;;;3.67;1.45;;;;;;;21.45;44.08;101870.44;5031932;27;98446;-80
2024/02/05 06:42:22;;;;;;;5.47;1.60;;;;;;;21.45;44.35;101877.50;5021537;27;114687;-80
2024/02/05 06:44:49;;;;;;;3.75;1.60;;;;;;;21.45;44.05;101886.38;5020786;28;96870;-79
2024/02/05 06:47:14;;;;;;;4.88;2.30;;;;;;;21.44;44.20;101879.28;5024603;27;96974;-80
2024/02/05 06:49:40;;;;;;;3.92;1.73;;;;;;;21.45;43.98;101877.50;5027309;27;100482;-80
2024/02/05 06:52:05;;;;;;;5.13;1.90;;;;;;;21.45;43.99;101869.53;5031009;27;116083;-80
2024/02/05 06:54:32;;;;;;;4.38;2.40;;;;;;;21.44;44.07;101873.97;5023136;27;97321;-80
2024/02/05 06:56:58;;;;;;;4.93;2.28;;;;;;;21.44;44.33;101868.69;5032910;27;97233;-79
2024/02/05 06:59:24;;;;;;;4.22;2.10;;;;;;;21.44;44.43;101868.69;5032297;28;99545;-80
2024/02/05 07:01:49;;;;;;;4.15;2.00;;;;;;;21.44;44.00;101868.69;5031419;27;122291;-80
2024/02/05 07:04:14;;;;;;;3.85;1.50;;;;;;;21.44;44.07;101873.09;5024381;27;96641;-80
2024/02/05 07:06:40;;;;;;;3.22;1.30;;;;;;;21.44;44.06;101873.97;5020496;27;96941;-80
2024/02/05 07:09:05;;;;;;;5.03;2.13;;;;;;;21.44;44.28;101881.03;5018370;28;127515;-80
2024/02/05 07:11:31;;;;;;;4.95;1.88;;;;;;;21.44;44.35;101881.94;5032674;27;97871;-80
2024/02/05 07:13:56;;;;;;;4.43;2.45;;;;;;;21.44;44.18;101886.34;5032630;27;97020;-80
2024/02/05 07:16:21;;;;;;;4.13;2.10;;;;;;;21.44;44.09;101896.97;5023281;28;113804;-80
2024/02/05 07:18:47;;;;;;;5.05;2.13;;;;;;;21.44;44.28;101896.97;5028866;27;98990;-80
2024/02/05 07:21:12;;;;;;;5.70;1.65;;;;;;;21.43;44.04;101898.75;5030061;28;98627;-80
2024/02/05 07:23:38;;;;;;;5.68;1.73;;;;;;;21.43;43.94;101901.41;5026836;27;96777;-80
2024/02/05 07:26:03;;;;;;;3.85;1.77;;;;;;;21.43;43.94;101909.38;5027763;27;96823;-80
2024/02/05 07:28:30;;;;;;;4.65;2.42;;;;;;;21.44;44.23;101910.25;5025179;27;97400;-80
2024/02/05 07:30:55;;;;;;;3.67;1.52;;;;;;;21.45;44.06;101917.31;5030010;27;97543;-80
2024/02/05 07:33:20;;;;;;;4.78;1.52;;;;;;;21.44;44.20;101908.50;5020894;27;97001;-80
2024/02/05 07:35:46;;;;;;;5.57;1.80;;;;;;;21.43;44.12;101898.75;5028528;27;114193;-80
2024/02/05 07:38:12;;;;;;;5.63;1.55;;;;;;;21.45;43.89;101914.66;5029060;28;100418;-80
2024/02/05 07:40:37;;;;;;;5.43;1.73;;;;;;;21.45;44.29;101925.28;5028547;27;96845;-79
2024/02/05 07:43:03;;;;;;;5.53;2.00;;;;;;;21.44;44.18;101920.84;5024177;27;96941;-80
2024/02/05 07:45:30;;;;;;;5.45;2.22;;;;;;;21.44;44.15;101929.72;5026070;27;96927;-80
2024/02/05 07:47:56;;;;;;;4.38;1.90;;;;;;;21.44;43.94;101921.75;5014687;27;100102;-79
2024/02/05 07:50:21;;;;;;;4.75;2.45;;;;;;;21.45;43.91;101912.00;5027914;27;100187;-80
2024/02/05 07:52:46;;;;;;;3.63;1.90;;;;;;;21.45;44.02;101918.22;5026012;27;98567;-79
2024/02/05 07:55:12;;;;;;;4.50;1.60;;;;;;;21.44;44.05;101921.75;5009127;28;116692;-79
2024/02/05 07:57:40;;;;;;;4.95;2.28;;;;;;;21.45;43.82;101923.53;5027683;27;97337;-80
2024/02/05 08:00:09;;;;;;;5.40;1.60;;;;;;;21.45;44.31;101919.97;5026810;27;126795;-80
2024/02/05 08:02:48;;;;;;;4.63;2.30;;;;;;;21.44;43.93;101921.75;5019637;27;97204;-80
2024/02/05 08:05:13;;;;;;;4.85;2.33;;;;;;;21.44;44.21;101928.81;5018195;28;113716;-80
2024/02/05 08:07:39;;;;;;;5.28;2.40;;;;;;;21.44;43.88;101929.72;5018057;27;97480;-80
2024/02/05 08:10:04;;;;;;;4.00;1.73;;;;;;;21.44;43.95;101927.06;5033730;27;100207;-80
2024/02/05 08:13:18;;;;;;;6.47;2.38;;;;;;;21.44;44.08;101937.69;5028880;27;96841;-80
2024/02/05 08:15:46;;;;;;;5.45;2.55;;;;;;;21.42;43.89;101939.47;5009757;28;97047;-79
2024/02/05 08:18:12;;;;;;;3.63;2.47;;;;;;;21.43;44.32;101933.25;5020913;27;98644;-80
2024/02/05 08:20:37;;;;;;;7.80;2.28;;;;;;;21.44;44.03;101935.03;5018548;28;118122;-80
2024/02/05 08:23:03;;;;;;;6.13;2.40;;;;;;;21.45;43.82;101927.94;5023636;27;96925;-80
2024/02/05 08:25:29;;;;;;;5.35;2.15;;;;;;;21.44;44.09;101932.38;5033922;27;96873;-80
2024/02/05 08:27:56;;;;;;;6.97;2.50;;;;;;;21.46;43.89;101919.09;5019334;27;99753;-80
2024/02/05 08:30:22;;;;;;;4.68;2.35;;;;;;;21.46;44.04;101924.41;5026821;28;96636;-79
2024/02/05 08:32:47;;;;;;;2.85;1.58;;;;;;;21.46;44.04;101913.78;4997252;28;96899;-80
2024/02/05 08:35:12;;;;;;;5.40;1.67;;;;;;;21.46;44.25;101914.69;5021041;28;113847;-80
2024/02/05 08:37:38;;;;;;;4.78;2.40;;;;;;;21.46;43.85;101911.13;5031535;27;100523;-80
2024/02/05 08:40:04;;;;;;;6.25;2.28;;;;;;;21.46;44.00;101912.03;5024512;27;96722;-80
2024/02/05 08:42:31;;;;;;;5.25;2.55;;;;;;;21.46;43.92;101920.00;5028477;27;97470;-80
2024/02/05 08:44:56;;;;;;;6.38;2.53;;;;;;;21.47;43.83;101912.88;5009962;28;97147;-80
2024/02/05 08:47:21;;;;;;;4.80;2.60;;;;;;;21.47;43.90;101915.53;5014541;27;127362;-80
2024/02/05 08:49:47;;;;;;;6.18;2.58;;;;;;;21.46;44.08;101917.34;5021704;27;129407;-79
2024/02/05 08:52:13;;;;;;;4.60;1.92;;;;;;;21.47;44.08;101912.88;5027603;27;98129;-81
2024/02/05 08:54:38;;;;;;;6.78;2.35;;;;;;;21.47;43.85;101916.41;5026578;27;97083;-80
2024/02/05 08:57:05;;;;;;;5.97;1.98;;;;;;;21.47;44.02;101910.22;5014874;27;117170;-80
2024/02/05 08:59:31;;;;;;;7.25;2.92;;;;;;;21.48;44.13;101915.53;5024419;28;98789;-80
2024/02/05 09:01:57;;;;;;;6.47;2.22;;;;;;;21.48;44.08;101922.63;5028266;27;96755;-80
2024/02/05 09:04:23;;;;;;;5.53;2.60;;;;;;;21.48;43.66;101907.56;5017900;27;97026;-80
2024/02/05 09:06:48;;;;;;;7.80;3.03;;;;;;;21.49;44.06;101903.13;5020449;27;96800;-80
2024/02/05 09:09:14;;;;;;;5.65;2.83;;;;;;;21.49;43.85;101914.59;5024915;27;99787;-80
2024/02/05 09:11:39;;;;;;;6.30;1.92;;;;;;;21.49;44.10;101911.09;5021870;27;97384;-79
2024/02/05 09:14:04;;;;;;;5.22;2.53;;;;;;;21.48;43.70;101906.69;5030574;27;104290;-78
2024/02/05 09:16:30;;;;;;;5.70;2.80;;;;;;;21.48;44.12;101912.88;5031267;27;127297;-78
2024/02/05 09:18:55;;;;;;;7.10;2.40;;;;;;;21.47;43.97;101911.09;5033276;27;106016;-79
2024/02/05 09:21:21;;;;;;;5.90;3.10;;;;;;;21.48;43.94;101915.53;5020239;27;117622;-80
2024/02/05 09:23:46;;;;;;;6.43;2.88;;;;;;;21.48;43.76;101915.53;5021817;27;101167;-80
2024/02/05 09:26:11;;;;;;;6.85;2.13;;;;;;;21.48;43.76;101918.19;5020434;27;99224;-80
2024/02/05 09:28:37;;;;;;;7.88;3.60;;;;;;;21.49;43.76;101919.03;5028573;27;111853;-80
2024/02/05 09:31:04;;;;;;;6.78;2.78;;;;;;;21.51;43.90;101929.66;5025269;27;115305;-80
2024/02/05 09:33:30;;;;;;;8.15;2.20;;;;;;;21.50;43.69;101920.81;5027597;28;96928;-80
2024/02/05 09:35:56;;;;;;;6.20;2.33;;;;;;;21.51;43.62;101919.91;5026914;27;97444;-80
2024/02/05 09:38:23;;;;;;;8.07;2.25;;;;;;;21.51;43.62;101916.38;5029880;27;97183;-80
2024/02/05 09:40:59;;;;;;;9.75;3.65;;;;;;;21.51;43.59;101927.00;5026152;27;96686;-80
2024/02/05 09:43:25;;;;;;;6.90;3.03;;;;;;;21.51;43.69;101921.69;5008452;27;96813;-80
2024/02/05 09:45:58;;;;;;;7.22;2.60;;;;;;;21.52;43.43;101923.44;5021926;27;98021;-79
2024/02/05 09:48:25;;;;;;;6.68;3.20;;;;;;;21.51;43.37;101917.25;5029083;28;97446;-80
2024/02/05 09:50:50;;;;;;;7.03;2.78;;;;;;;21.51;43.63;101925.19;5027636;27;97337;-80
2024/02/05 09:53:17;;;;;;;7.78;3.15;;;;;;;21.52;43.77;101910.19;5030326;27;97668;-79
2024/02/05 09:55:44;;;;;;;9.18;3.03;;;;;;;21.52;43.74;101916.34;5028927;28;97325;-80
2024/02/05 09:58:10;;;;;;;5.70;2.35;;;;;;;21.52;43.74;101924.31;5010913;28;98585;-80
2024/02/05 10:00:36;;;;;;;6.20;2.55;;;;;;;21.51;43.88;101933.16;5028562;27;97104;-80
2024/02/05 10:03:02;;;;;;;6.88;3.53;;;;;;;21.51;43.91;101925.19;5018218;27;96866;-80
2024/02/05 10:05:28;;;;;;;6.40;2.72;;;;;;;21.52;43.32;101929.63;5016912;28;96771;-80
2024/02/05 10:07:55;;;;;;;8.88;3.05;;;;;;;21.52;43.30;101926.09;5030412;27;97339;-80
2024/02/05 10:10:22;;;;;;;11.48;3.42;;;;;;;21.52;43.83;101926.97;5017743;27;97368;-80
2024/02/05 10:12:50;;;;;;;9.88;2.72;;;;;;;21.53;43.31;101919.88;5024508;27;96980;-80
2024/02/05 10:15:16;;;;;;;9.38;3.05;;;;;;;21.52;43.38;101916.34;5026618;27;97386;-79
2024/02/05 10:17:43;;;;;;;7.57;3.22;;;;;;;21.53;43.67;101915.44;5030153;27;96746;-80
2024/02/05 10:20:12;;;;;;;6.60;3.03;;;;;;;21.52;43.61;101913.69;5010326;28;96723;-80
2024/02/05 10:22:48;;;;;;;9.00;3.25;;;;;;;21.53;43.71;101917.22;5025827;28;97159;-80
2024/02/05 10:25:14;;;;;;;7.72;2.97;;;;;;;21.52;43.50;101911.03;5025964;27;98994;-80
2024/02/05 10:27:41;;;;;;;9.30;3.78;;;;;;;21.52;43.32;101911.03;5045414;27;97414;-80
2024/02/05 10:30:07;;;;;;;7.32;3.33;;;;;;;21.53;43.69;101904.81;5023221;27;96608;-80
2024/02/05 10:32:33;;;;;;;9.45;3.55;;;;;;;21.52;43.62;101903.06;5027953;27;97863;-80
2024/02/05 10:34:59;;;;;;;12.70;4.13;;;;;;;21.53;43.60;101896.84;5031074;27;99297;-80
2024/02/05 10:37:24;;;;;;;7.82;3.28;;;;;;;21.53;43.45;101891.53;5030167;27;98925;-80
2024/02/05 10:39:50;;;;;;;7.68;3.08;;;;;;;21.53;43.51;101888.88;5045147;27;96831;-80
2024/02/05 10:42:15;;;;;;;7.85;2.92;;;;;;;21.53;43.17;101888.88;5031957;27;96765;-80
2024/02/05 10:44:41;;;;;;;7.63;2.50;;;;;;;21.54;43.24;101887.13;5033798;28;97256;-80
2024/02/05 10:47:11;;;;;;;8.15;3.60;;;;;;;21.54;43.61;101892.44;5014551;27;99990;-78
2024/02/05 10:49:38;;;;;;;8.73;3.53;;;;;;;21.54;43.29;101889.78;5029893;27;96875;-79
2024/02/05 10:52:04;;;;;;;8.88;2.78;;;;;;;21.54;43.51;101895.97;5029000;27;97475;-79
2024/02/05 10:54:35;;;;;;;8.93;3.47;;;;;;;21.54;43.14;101885.34;5031223;27;97592;-77
2024/02/05 10:57:01;;;;;;;7.30;2.80;;;;;;;21.54;43.30;101889.78;5015149;27;100118;-77
2024/02/05 10:59:26;;;;;;;11.07;2.95;;;;;;;21.55;43.18;101887.09;5029765;27;96732;-78
2024/02/05 11:01:59;;;;;;;10.07;3.13;;;;;;;21.55;43.36;101878.25;5025242;27;97048;-79
2024/02/05 11:04:27;;;;;;;8.15;3.15;;;;;;;21.55;43.50;101878.25;5030411;27;97519;-77
2024/02/05 11:06:57;;;;;;;9.65;2.95;;;;;;;21.55;43.18;101875.59;5029965;27;97271;-78
2024/02/05 11:09:24;;;;;;;7.07;2.85;;;;;;;21.54;43.22;101864.09;5027694;27;97831;-80
2024/02/05 11:11:56;;;;;;;8.65;3.33;;;;;;;21.55;43.42;101863.22;5030493;27;96807;-78
2024/02/05 11:14:22;;;;;;;9.15;2.88;;;;;;;21.55;43.30;101862.31;5031150;28;96820;-79
2024/02/05 11:16:48;;;;;;;8.05;2.78;;;;;;;21.56;43.21;101858.78;5032993;28;96786;-80
2024/02/05 11:19:17;;;;;;;7.53;2.70;;;;;;;21.56;43.39;101851.69;5030278;27;96894;-81
2024/02/05 11:21:48;;;;;;;8.60;2.95;;;;;;;21.57;43.13;101855.19;5032851;27;96707;-81